This is the latest recevied weather packets stored in our database for station/object KR4DFQ. If no packets are shown the sender has not sent any weather packets the latest 10 day(s).
| Time | Temp. | Humidity | Pressure | Rain* | Wind** | Luminosity | Snow |
|---|---|---|---|---|---|---|---|
| 1787849930 | 34.44° C | 58% | 1017.7 hPa | 0 mm | - | 931 W/m² | - |
| 1787849626 | 34.44° C | 57% | 1017.8 hPa | 0 mm | - | 931 W/m² | - |
| 1787849325 | 35° C | 57% | 1017.9 hPa | 0 mm | - | 930 W/m² | - |
| 1787849025 | 35° C | 56% | 1018.1 hPa | 0 mm | - | 951 W/m² | - |
| 1787848725 | 35° C | 55% | 1018.1 hPa | 0 mm | - | 921 W/m² | - |
| 1787848420 | 34.44° C | 55% | 1017.9 hPa | 0 mm | - | 919 W/m² | - |
| 1787848119 | 35° C | 55% | 1018.1 hPa | 0 mm | - | 903 W/m² | - |
| 1787847814 | 35° C | 54% | 1018.1 hPa | 0 mm | - | 942 W/m² | - |
| 1787847509 | 34.44° C | 55% | 1017.9 hPa | 0 mm | - | 906 W/m² | - |
| 1787847205 | 34.44° C | 57% | 1018.1 hPa | 0 mm | - | 886 W/m² | - |
| 1787846902 | 34.44° C | 57% | 1017.9 hPa | 0 mm | - | 885 W/m² | - |
| 1787846600 | 34.44° C | 57% | 1018 hPa | 0 mm | - | 884 W/m² | - |
| 1787846296 | 34.44° C | 56% | 1018.1 hPa | 0 mm | - | 878 W/m² | - |
| 1787845992 | 34.44° C | 58% | 1018 hPa | 0 mm | - | 878 W/m² | - |
| 1787845688 | 34.44° C | 59% | 1018 hPa | 0 mm | - | 874 W/m² | - |
| 1787845387 | 33.89° C | 60% | 1018 hPa | 0 mm | - | 531 W/m² | - |
| 1787845083 | 33.89° C | 59% | 1018 hPa | 0 mm | - | 915 W/m² | - |
| 1787844779 | 33.33° C | 60% | 1017.9 hPa | 0 mm | - | 883 W/m² | - |
| 1787844477 | 33.33° C | 60% | 1017.9 hPa | 0 mm | - | 869 W/m² | - |
| 1787844173 | 33.33° C | 58% | 1017.9 hPa | 0 mm | - | 510 W/m² | - |
| 1787843872 | 33.33° C | 62% | 1018.1 hPa | 0 mm | - | 827 W/m² | - |
| 1787843567 | 33.33° C | 62% | 1018 hPa | 0 mm | - | 895 W/m² | - |
| 1787843263 | 33.33° C | 60% | 1018.1 hPa | 0 mm | - | 245 W/m² | - |
| 1787842959 | 32.78° C | 62% | 1017.9 hPa | 0 mm | - | 888 W/m² | - |
| 1787842658 | 33.89° C | 60% | 1018.1 hPa | 0 mm | - | 207 W/m² | - |
* Rain latest hour (hover to see other rain measurements)
** Current wind speed in m/s (hover to see current wind gust speed)